createdAt,value
2019-04-01T00:00:05.754Z,91.40
2019-04-01T00:02:32.706Z,91.50
2019-04-01T00:04:58.088Z,91.60
2019-04-01T00:07:23.417Z,91.50
2019-04-01T00:09:49.878Z,91.50
2019-04-01T00:12:16.830Z,91.80
2019-04-01T00:14:42.173Z,92.40
2019-04-01T00:17:07.567Z,92.00
2019-04-01T00:19:32.906Z,92.00
2019-04-01T00:21:58.274Z,92.00
2019-04-01T00:24:23.626Z,92.20
2019-04-01T00:26:48.990Z,92.00
2019-04-01T00:29:14.436Z,92.60
2019-04-01T00:31:39.774Z,92.60
2019-04-01T00:34:05.134Z,92.70
2019-04-01T00:36:30.483Z,93.20
2019-04-01T00:38:55.845Z,93.20
2019-04-01T00:41:21.194Z,93.00
2019-04-01T00:43:57.722Z,93.30
2019-04-01T00:46:23.458Z,93.00
2019-04-01T00:49:00.890Z,93.40
2019-04-01T00:51:26.322Z,93.30
2019-04-01T00:53:51.660Z,93.80
2019-04-01T00:56:17.034Z,93.80
2019-04-01T00:58:42.406Z,93.70
2019-04-01T01:01:07.782Z,93.90
2019-04-01T01:03:33.117Z,93.40
2019-04-01T01:05:58.513Z,93.90
2019-04-01T01:08:23.854Z,94.00
2019-04-01T01:10:49.198Z,93.70
2019-04-01T01:13:15.638Z,93.30
2019-04-01T01:15:40.971Z,93.20
2019-04-01T01:18:06.333Z,93.80
2019-04-01T01:20:31.669Z,93.60
2019-04-01T01:22:57.124Z,93.80
2019-04-01T01:25:22.467Z,94.00
2019-04-01T01:27:47.817Z,94.20
2019-04-01T01:30:13.813Z,94.50
2019-04-01T01:32:39.142Z,94.40
2019-04-01T01:35:04.689Z,94.70
2019-04-01T01:37:30.034Z,94.00
2019-04-01T01:39:55.773Z,94.60
2019-04-01T01:42:21.135Z,94.20
2019-04-01T01:44:46.469Z,94.40
2019-04-01T01:47:11.834Z,94.20
2019-04-01T01:49:37.165Z,94.10
2019-04-01T01:52:02.662Z,94.60
2019-04-01T01:54:27.990Z,94.70
2019-04-01T01:56:53.326Z,95.50
2019-04-01T01:59:18.716Z,94.60
2019-04-01T02:01:44.062Z,93.90
2019-04-01T02:04:09.538Z,94.00
2019-04-01T02:06:34.875Z,94.40
2019-04-01T02:09:01.287Z,94.50
2019-04-01T02:11:28.015Z,94.40
2019-04-01T02:13:53.350Z,94.50
2019-04-01T02:16:18.730Z,94.70
2019-04-01T02:18:44.066Z,95.00
2019-04-01T02:21:09.397Z,95.00
2019-04-01T02:23:34.784Z,95.10
2019-04-01T02:26:00.118Z,94.80
2019-04-01T02:28:25.513Z,94.40
2019-04-01T02:30:50.866Z,95.00
2019-04-01T02:33:16.210Z,95.10
2019-04-01T02:35:41.587Z,94.80
2019-04-01T02:38:06.996Z,95.10
2019-04-01T02:40:32.592Z,95.00
2019-04-01T02:42:58.129Z,95.00
2019-04-01T02:45:23.587Z,95.10
2019-04-01T02:47:48.939Z,94.70
2019-04-01T02:50:14.395Z,94.80
2019-04-01T02:52:39.775Z,95.60
2019-04-01T02:55:06.922Z,94.90
2019-04-01T02:57:32.363Z,95.40
2019-04-01T02:59:57.733Z,95.30
2019-04-01T03:02:23.191Z,95.40
2019-04-01T03:04:48.538Z,94.70
2019-04-01T03:07:13.891Z,95.50
2019-04-01T03:09:39.254Z,95.20
2019-04-01T03:12:04.597Z,95.00
2019-04-01T03:14:29.955Z,95.00
2019-04-01T03:16:55.314Z,95.30
2019-04-01T03:19:20.679Z,94.90
2019-04-01T03:21:46.025Z,95.00
2019-04-01T03:24:11.395Z,95.20
2019-04-01T03:26:36.746Z,95.50
2019-04-01T03:29:02.085Z,95.60
2019-04-01T03:31:27.542Z,95.20
2019-04-01T03:34:04.962Z,96.00
2019-04-01T09:32:19.625Z,46.80
2019-04-01T09:34:45.590Z,47.60
2019-04-01T09:37:10.925Z,47.00
2019-04-01T09:39:36.398Z,47.10
2019-04-01T09:42:02.015Z,46.20
2019-04-01T09:44:36.707Z,45.60
2019-04-01T09:46:54.502Z,44.90
2019-04-01T09:49:19.848Z,45.00
2019-04-01T09:51:48.877Z,47.00
2019-04-01T09:54:12.550Z,46.70
2019-04-01T09:56:37.916Z,44.60
2019-04-01T09:59:03.259Z,46.10
2019-04-01T10:01:28.674Z,44.20
2019-04-01T10:03:54.046Z,44.70
2019-04-01T10:06:19.382Z,44.20
2019-04-01T10:08:44.853Z,43.20
2019-04-01T10:11:12.638Z,42.00
2019-04-01T10:13:37.258Z,41.20
2019-04-01T10:16:02.600Z,40.50
2019-04-01T10:18:27.980Z,43.40
2019-04-01T10:20:53.346Z,41.40
2019-04-01T10:23:18.688Z,44.50
2019-04-01T10:25:44.057Z,39.30
2019-04-01T10:28:09.393Z,40.10
2019-04-01T10:30:34.779Z,42.00
2019-04-01T10:33:02.104Z,40.40
2019-04-01T10:35:27.225Z,40.80
2019-04-01T10:37:53.484Z,42.00
2019-04-01T10:40:18.985Z,41.30
2019-04-01T10:42:44.353Z,43.20
2019-04-01T10:45:10.365Z,40.80
2019-04-01T10:47:35.848Z,41.30
2019-04-01T10:50:01.285Z,41.70
2019-04-01T10:52:26.604Z,42.00
2019-04-01T10:54:52.041Z,41.40
2019-04-01T10:57:17.403Z,40.90
2019-04-01T10:59:42.745Z,41.00
2019-04-01T11:02:08.129Z,38.70
2019-04-01T11:04:33.752Z,39.10
2019-04-01T11:06:59.709Z,40.10
2019-04-01T11:09:37.663Z,38.60
2019-04-01T11:11:51.974Z,40.30
2019-04-01T11:14:17.322Z,39.40
2019-04-01T11:16:43.754Z,41.00
2019-04-01T11:19:10.009Z,40.00
2019-04-01T11:21:35.478Z,44.40
2019-04-01T11:24:01.965Z,40.20
2019-04-01T11:26:27.583Z,40.50
2019-04-01T11:28:52.942Z,43.30
2019-04-01T11:31:18.335Z,40.10
2019-04-01T11:33:43.753Z,39.70
2019-04-01T11:36:09.091Z,39.90
2019-04-01T11:38:34.429Z,40.30
2019-04-01T11:40:59.821Z,41.90
2019-04-01T11:43:26.207Z,40.00
2019-04-01T11:45:51.620Z,41.90
2019-04-01T11:48:18.579Z,43.20
2019-04-01T11:50:47.504Z,39.10
2019-04-01T11:53:10.867Z,39.20
2019-04-01T11:55:36.233Z,38.70
2019-04-01T11:58:01.687Z,37.90
2019-04-01T12:00:27.022Z,37.20
2019-04-01T12:02:52.485Z,39.50
2019-04-01T12:05:17.911Z,39.90
2019-04-01T12:07:43.249Z,39.00
2019-04-01T12:10:10.128Z,39.10
2019-04-01T12:12:35.457Z,38.80
2019-04-01T12:15:00.806Z,37.00
2019-04-01T12:17:26.269Z,38.80
2019-04-01T12:19:53.148Z,40.00
2019-04-01T12:22:19.957Z,36.80
2019-04-01T12:24:45.462Z,36.40
2019-04-01T12:27:10.909Z,35.00
2019-04-01T12:29:36.290Z,35.90
2019-04-01T12:32:03.017Z,36.60
2019-04-01T12:34:28.482Z,36.40
2019-04-01T12:36:53.823Z,36.60
2019-04-01T12:39:19.196Z,34.60
2019-04-01T12:41:44.577Z,34.20
2019-04-01T12:44:11.040Z,34.00
2019-04-01T12:46:36.487Z,34.30
2019-04-01T12:49:01.863Z,34.20
2019-04-01T12:51:27.202Z,34.20
2019-04-01T12:53:52.566Z,35.00
2019-04-01T12:56:17.917Z,34.60
2019-04-01T12:58:43.283Z,34.70
2019-04-01T13:01:08.618Z,34.80
2019-04-01T13:03:34.023Z,35.30
2019-04-01T13:05:59.415Z,36.00
2019-04-01T13:08:24.766Z,36.40
2019-04-01T13:10:50.596Z,35.80
2019-04-01T13:13:16.246Z,35.00
2019-04-01T13:15:41.598Z,36.90
2019-04-01T13:18:07.019Z,37.10
2019-04-01T13:20:38.063Z,35.10
2019-04-01T13:22:59.338Z,35.50
2019-04-01T13:25:25.100Z,35.80
2019-04-01T13:27:50.450Z,34.30
2019-04-01T13:30:15.911Z,36.80
2019-04-01T13:32:41.411Z,35.50
2019-04-01T13:35:07.521Z,37.60
2019-04-01T13:37:32.865Z,35.90
2019-04-01T13:40:02.847Z,35.10
2019-04-01T13:42:28.821Z,38.00
2019-04-01T13:44:54.170Z,38.10
2019-04-01T13:47:19.677Z,37.50
2019-04-01T13:49:45.957Z,39.40
2019-04-01T13:52:11.703Z,40.20
2019-04-01T13:54:37.373Z,39.70
2019-04-01T13:57:02.753Z,38.90
2019-04-01T13:59:28.563Z,38.70
2019-04-01T14:01:54.352Z,39.50
2019-04-01T14:04:22.453Z,39.70
2019-04-01T14:06:47.850Z,40.60
2019-04-01T14:09:13.206Z,40.40
2019-04-01T14:11:38.683Z,40.00
2019-04-01T14:14:04.226Z,40.90
2019-04-01T14:16:29.583Z,42.30
2019-04-01T14:18:55.045Z,40.80
2019-04-01T14:21:21.015Z,41.50
2019-04-01T14:23:46.948Z,40.20
2019-04-01T14:26:12.556Z,41.40
2019-04-01T14:28:39.050Z,42.60
2019-04-01T14:31:05.236Z,42.10
2019-04-01T14:33:32.661Z,42.80
2019-04-01T14:35:58.298Z,43.70
2019-04-01T14:38:23.679Z,42.30
2019-04-01T14:40:49.024Z,42.80
2019-04-01T14:43:14.477Z,41.70
2019-04-01T14:45:39.925Z,42.20
2019-04-01T14:48:08.355Z,42.00
2019-04-01T14:50:33.319Z,41.70
2019-04-01T14:52:58.666Z,40.50
2019-04-01T14:55:24.011Z,39.80
2019-04-01T14:57:49.369Z,39.90
2019-04-01T15:00:15.921Z,41.80
2019-04-01T15:02:41.306Z,41.10
2019-04-01T15:05:06.893Z,40.30
2019-04-01T15:07:32.694Z,40.50
2019-04-01T15:09:58.054Z,40.80
2019-04-01T15:12:23.414Z,40.90
2019-04-01T15:14:48.799Z,40.30
2019-04-01T15:17:14.149Z,40.00
2019-04-01T15:19:39.542Z,40.40
2019-04-01T15:22:04.990Z,41.10
2019-04-01T15:24:30.361Z,41.00
2019-04-01T15:26:56.198Z,39.00
2019-04-01T15:29:21.550Z,39.10
2019-04-01T15:31:46.925Z,40.00
2019-04-01T15:34:12.303Z,38.80
2019-04-01T15:36:37.654Z,38.50
2019-04-01T15:39:03.065Z,37.70
2019-04-01T15:41:29.786Z,38.80
2019-04-01T15:43:55.179Z,37.80
2019-04-01T15:46:20.596Z,38.50
2019-04-01T15:48:45.929Z,38.00
2019-04-01T15:51:11.336Z,39.30
2019-04-01T15:53:36.693Z,39.10
2019-04-01T15:56:02.423Z,38.90
2019-04-01T15:58:28.145Z,39.10
2019-04-01T16:00:53.489Z,39.70
2019-04-01T16:03:18.849Z,40.20
2019-04-01T16:05:44.251Z,39.70
2019-04-01T16:08:09.647Z,39.50
2019-04-01T16:10:35.023Z,40.30
2019-04-01T16:13:00.619Z,41.10
2019-04-01T16:15:26.035Z,40.00
2019-04-01T16:17:53.878Z,40.70
2019-04-01T16:20:18.374Z,40.90
2019-04-01T16:22:43.876Z,41.90
2019-04-01T16:25:09.382Z,42.60
2019-04-01T16:27:34.740Z,41.80
2019-04-01T16:30:00.093Z,42.00
2019-04-01T16:32:25.660Z,42.30
2019-04-01T16:34:51.087Z,42.90
2019-04-01T16:37:16.440Z,42.90
2019-04-01T16:39:41.918Z,42.50
2019-04-01T16:42:07.249Z,43.20
2019-04-01T16:44:32.603Z,43.20
2019-04-01T16:46:58.095Z,43.60
2019-04-01T16:49:23.453Z,43.30
2019-04-01T16:51:48.813Z,43.20
2019-04-01T16:54:14.293Z,44.30
2019-04-01T16:56:39.650Z,43.50
2019-04-01T16:59:05.007Z,43.80
2019-04-01T17:01:30.417Z,43.00
2019-04-01T17:03:55.776Z,43.70
2019-04-01T17:06:21.161Z,44.00
2019-04-01T17:08:46.578Z,43.20
2019-04-01T17:11:11.942Z,43.30
2019-04-01T17:13:37.349Z,43.40
2019-04-01T17:16:02.790Z,44.40
2019-04-01T17:18:28.137Z,44.50
2019-04-01T17:20:53.514Z,43.90
2019-04-01T17:23:18.935Z,44.50
2019-04-01T17:25:44.403Z,45.20
2019-04-01T17:28:10.246Z,45.30
2019-04-01T17:30:35.609Z,45.10
2019-04-01T17:33:01.026Z,45.00
2019-04-01T17:35:26.369Z,45.70
2019-04-01T17:37:51.777Z,45.90
2019-04-01T17:40:17.395Z,45.30
2019-04-01T17:42:42.934Z,45.50
2019-04-01T17:45:32.689Z,46.40
2019-04-01T17:48:00.536Z,46.60
2019-04-01T17:50:24.993Z,47.20
2019-04-01T17:52:50.375Z,47.30
2019-04-01T17:55:16.256Z,47.00
2019-04-01T17:57:42.575Z,47.30
2019-04-01T18:00:12.262Z,47.70
2019-04-01T18:02:38.455Z,48.20
2019-04-01T18:05:03.803Z,48.30
2019-04-01T18:07:29.141Z,49.40
2019-04-01T18:09:54.729Z,48.20
2019-04-01T18:12:20.070Z,48.30
2019-04-01T18:14:45.410Z,48.30
2019-04-01T18:17:12.008Z,49.10
2019-04-01T18:19:37.682Z,49.00
2019-04-01T18:22:03.038Z,49.20
2019-04-01T18:24:28.376Z,49.80
2019-04-01T18:26:53.713Z,50.10
2019-04-01T18:29:19.170Z,50.10
2019-04-01T18:31:44.512Z,50.20
2019-04-01T18:34:09.925Z,50.40
2019-04-01T18:36:35.298Z,50.50
2019-04-01T18:39:03.845Z,50.40
2019-04-01T18:41:40.212Z,50.50
2019-04-01T18:44:05.641Z,49.90
2019-04-01T18:46:30.982Z,50.10
2019-04-01T18:48:56.354Z,50.40
2019-04-01T18:51:22.066Z,50.40
2019-04-01T18:53:47.474Z,50.60
2019-04-01T18:56:12.799Z,51.30
2019-04-01T18:58:38.265Z,51.30
2019-04-01T19:01:04.484Z,51.00
2019-04-01T19:03:29.935Z,50.50
2019-04-01T19:05:55.666Z,50.50
2019-04-01T19:08:21.018Z,50.60
2019-04-01T19:10:46.598Z,50.20
2019-04-01T19:13:12.643Z,50.70
2019-04-01T19:15:41.035Z,50.60
2019-04-01T19:18:05.441Z,51.20
2019-04-01T19:20:30.839Z,51.10
2019-04-01T19:22:56.272Z,51.40
2019-04-01T19:25:23.273Z,51.70
2019-04-01T19:27:49.219Z,51.70
2019-04-01T19:30:15.959Z,51.10
2019-04-01T19:32:41.398Z,52.10
2019-04-01T19:35:09.442Z,51.70
2019-04-01T19:37:34.092Z,51.50
2019-04-01T19:39:59.430Z,52.10
2019-04-01T19:42:24.773Z,52.50
2019-04-01T19:44:50.159Z,52.00
2019-04-01T19:47:15.501Z,51.80
2019-04-01T19:49:40.854Z,52.70
2019-04-01T19:52:09.544Z,51.90
2019-04-01T19:54:34.277Z,52.30
2019-04-01T19:56:59.925Z,53.20
2019-04-01T19:59:26.080Z,52.30
2019-04-01T20:01:51.618Z,52.90
2019-04-01T20:04:16.982Z,52.90
2019-04-01T20:06:42.340Z,53.00
2019-04-01T20:09:08.643Z,53.50
2019-04-01T20:11:34.021Z,52.70
2019-04-01T20:14:00.774Z,53.10
2019-04-01T20:16:26.211Z,53.30
2019-04-01T20:18:51.568Z,53.00
2019-04-01T20:21:16.953Z,53.80
2019-04-01T20:23:42.312Z,53.00
2019-04-01T20:26:08.657Z,53.80
2019-04-01T20:28:34.017Z,54.00
2019-04-01T20:30:59.375Z,54.10
2019-04-01T20:33:24.733Z,53.80
2019-04-01T20:35:50.079Z,53.90
2019-04-01T20:38:15.462Z,54.00
2019-04-01T20:40:40.814Z,54.30
2019-04-01T20:43:06.161Z,54.40
2019-04-01T20:45:31.550Z,54.80
2019-04-01T20:47:57.976Z,54.20
2019-04-01T20:50:23.630Z,54.80
2019-04-01T20:52:50.180Z,55.40
2019-04-01T20:55:15.701Z,55.00
2019-04-01T20:57:41.075Z,55.30
2019-04-01T21:00:09.305Z,55.80
2019-04-01T21:02:35.443Z,55.90
2019-04-01T21:05:00.783Z,56.20
2019-04-01T21:07:26.130Z,56.60
2019-04-01T21:09:51.493Z,56.50
2019-04-01T21:12:16.864Z,56.70
2019-04-01T21:14:42.194Z,57.30
2019-04-01T21:17:07.577Z,57.40
2019-04-01T21:19:32.915Z,57.30
2019-04-01T21:21:58.258Z,58.30
2019-04-01T21:24:23.730Z,58.20
2019-04-01T21:26:49.082Z,57.60
2019-04-01T21:29:14.438Z,59.50
2019-04-01T21:31:39.886Z,58.80
2019-04-01T21:34:07.699Z,60.00
2019-04-01T21:36:32.291Z,59.80
2019-04-01T21:38:57.753Z,59.60
2019-04-01T21:41:23.103Z,59.90
2019-04-01T21:43:49.051Z,59.60
2019-04-01T21:46:14.917Z,59.80
2019-04-01T21:48:40.242Z,60.40
2019-04-01T21:51:05.805Z,61.10
2019-04-01T21:53:31.614Z,61.60
2019-04-01T21:55:57.040Z,61.00
2019-04-01T21:58:22.405Z,60.70
2019-04-01T22:00:54.589Z,60.50
2019-04-01T22:03:20.034Z,60.60
2019-04-01T22:05:45.381Z,60.90
2019-04-01T22:08:10.720Z,61.00
2019-04-01T22:10:36.453Z,60.30
2019-04-01T22:13:01.846Z,60.40
2019-04-01T22:15:27.190Z,59.70
2019-04-01T22:17:52.559Z,59.80
2019-04-01T22:20:17.994Z,59.90
2019-04-01T22:22:43.441Z,59.00
2019-04-01T22:25:08.777Z,59.10
2019-04-01T22:27:34.118Z,58.80
2019-04-01T22:29:59.479Z,59.30
2019-04-01T22:32:24.831Z,58.60
2019-04-01T22:34:50.550Z,58.90
2019-04-01T22:37:26.615Z,58.70
2019-04-01T22:39:45.390Z,58.80
2019-04-01T22:42:12.134Z,58.80
2019-04-01T22:44:37.494Z,58.60
2019-04-01T22:47:02.846Z,58.60
2019-04-01T22:49:28.223Z,58.90
2019-04-01T22:51:53.550Z,58.60
2019-04-01T22:54:18.914Z,58.90
2019-04-01T22:56:44.580Z,58.80
2019-04-01T22:59:09.991Z,58.90
2019-04-01T23:01:35.354Z,58.70
2019-04-01T23:04:00.696Z,58.90
2019-04-01T23:06:26.946Z,59.10
2019-04-01T23:08:52.410Z,58.50
2019-04-01T23:11:17.760Z,57.80
2019-04-01T23:13:43.154Z,58.50
2019-04-01T23:16:08.537Z,58.60
2019-04-01T23:18:33.876Z,59.00
2019-04-01T23:20:59.222Z,58.00
2019-04-01T23:23:24.577Z,58.30
2019-04-01T23:25:49.910Z,58.50
2019-04-01T23:28:15.311Z,58.50
2019-04-01T23:30:40.766Z,58.70
2019-04-01T23:33:06.110Z,58.20
2019-04-01T23:35:31.460Z,58.40
2019-04-01T23:37:56.822Z,58.70
2019-04-01T23:40:22.206Z,58.70
2019-04-01T23:42:47.546Z,58.70
2019-04-01T23:45:13.418Z,58.90
2019-04-01T23:47:38.866Z,59.00
2019-04-01T23:50:04.322Z,58.90
2019-04-01T23:52:29.682Z,58.70
2019-04-01T23:54:55.041Z,58.90
2019-04-01T23:57:20.386Z,59.10
2019-04-01T23:59:45.853Z,59.40
